Time;durP1;ratioP1;P1;durP2;ratioP2;P2;SDS_P1;SDS_P2;PMS_P1;PMS_P2;Temp;Humidity;BMP_temperature;BMP_pressure;BME280_temperature;BME280_humidity;BME280_pressure;Samples;Min_cycle;Max_cycle;Signal;HPM_P1;HPM_P2
2022/01/21 00:00:19;;;;;;;1999.90;999.90;;;0.10;99.90;;;;;;5051871;28;20961;-70
2022/01/21 00:02:45;;;;;;;1999.90;999.90;;;-0.40;99.90;;;;;;5052637;28;20450;-70
2022/01/21 00:05:12;;;;;;;1999.90;999.90;;;-0.40;99.90;;;;;;5052378;28;20447;-70
2022/01/21 00:07:40;;;;;;;1999.90;999.90;;;-0.50;99.90;;;;;;5051690;28;20478;-69
2022/01/21 00:10:09;;;;;;;1999.90;999.90;;;-0.50;99.90;;;;;;5051348;28;20442;-70
2022/01/21 00:12:36;;;;;;;1999.90;999.90;;;-0.60;99.90;;;;;;5032700;28;20447;-70
2022/01/21 00:15:05;;;;;;;1999.90;999.90;;;-0.50;99.90;;;;;;5048329;28;20451;-69
2022/01/21 00:17:31;;;;;;;1999.90;999.90;;;-0.50;99.90;;;;;;5050457;28;20473;-69
2022/01/21 00:30:53;;;;;;;1999.90;999.90;;;-0.50;99.90;;;;;;5051227;28;20464;-70
2022/01/21 00:33:20;;;;;;;1999.90;999.90;;;-0.50;99.90;;;;;;5052459;28;20450;-70
2022/01/21 00:35:47;;;;;;;1999.90;999.90;;;-0.30;99.90;;;;;;5051695;28;20524;-70
2022/01/21 00:38:15;;;;;;;1999.90;999.90;;;-0.60;99.90;;;;;;5051397;28;20496;-70
2022/01/21 00:40:42;;;;;;;1999.90;999.90;;;-0.60;99.90;;;;;;5051161;28;20986;-69
2022/01/21 00:43:15;;;;;;;1999.90;999.90;;;-0.40;99.90;;;;;;5051560;28;20451;-70
2022/01/21 00:45:42;;;;;;;1999.90;999.90;;;-0.50;99.90;;;;;;5051362;28;20569;-69
2022/01/21 00:48:09;;;;;;;1999.90;999.90;;;-0.70;99.90;;;;;;5051216;28;20478;-69
2022/01/21 00:50:35;;;;;;;1999.90;999.90;;;-0.60;99.90;;;;;;5050704;28;20450;-70
2022/01/21 00:53:02;;;;;;;1999.90;999.90;;;-0.20;99.90;;;;;;5051049;28;20450;-70
2022/01/21 00:55:30;;;;;;;1999.90;999.90;;;-0.40;99.90;;;;;;5051536;28;20539;-71
2022/01/21 00:57:57;;;;;;;1999.90;999.90;;;-0.50;99.90;;;;;;5051170;28;20455;-71
2022/01/21 01:00:24;;;;;;;1999.90;999.90;;;-0.50;99.90;;;;;;5051612;28;20446;-70
2022/01/21 01:02:50;;;;;;;1999.90;999.90;;;-0.50;99.90;;;;;;5051067;28;20446;-70
2022/01/21 01:05:17;;;;;;;1999.90;999.90;;;-0.20;99.90;;;;;;5050949;28;20863;-70
2022/01/21 01:07:44;;;;;;;1999.90;999.90;;;-0.50;99.90;;;;;;5050661;28;20462;-70
2022/01/21 01:10:17;;;;;;;1999.90;999.90;;;-0.10;99.90;;;;;;5051529;28;20446;-69
2022/01/21 01:12:57;;;;;;;1999.90;999.90;;;-0.50;99.90;;;;;;5051095;28;20454;-72
2022/01/21 01:20:52;;;;;;;1999.90;999.90;;;-0.10;99.90;;;;;;5052927;28;20568;-70
2022/01/21 01:23:26;;;;;;;1999.90;999.90;;;-0.50;99.90;;;;;;5055476;28;20515;-72
2022/01/21 01:28:39;;;;;;;1999.90;999.90;;;-0.60;99.90;;;;;;5055158;28;20508;-71
2022/01/21 01:31:06;;;;;;;1999.90;999.90;;;-0.70;99.90;;;;;;5054350;28;20470;-70
2022/01/21 01:33:39;;;;;;;1999.90;999.90;;;-0.60;99.90;;;;;;5055045;28;20446;-70
2022/01/21 01:36:08;;;;;;;1999.90;999.90;;;-0.70;99.90;;;;;;5054488;28;20498;-70
2022/01/21 01:38:58;;;;;;;1999.90;999.90;;;-0.70;99.90;;;;;;5053448;28;20443;-70
2022/01/21 01:41:29;;;;;;;1999.90;999.90;;;-0.60;99.90;;;;;;5052753;28;20446;-70
2022/01/21 01:49:30;;;;;;;1999.90;999.90;;;-0.70;99.90;;;;;;5052258;28;20489;-70
2022/01/21 01:51:59;;;;;;;1999.90;999.90;;;-0.60;99.90;;;;;;5052605;28;20481;-70
2022/01/21 01:54:27;;;;;;;1999.90;999.90;;;-0.60;99.90;;;;;;5054038;28;20504;-70
2022/01/21 01:56:56;;;;;;;1999.90;999.90;;;-0.60;99.90;;;;;;5054732;28;20520;-72
2022/01/21 01:59:24;;;;;;;1999.90;999.90;;;-0.60;99.90;;;;;;5054483;28;20450;-70
2022/01/21 02:01:53;;;;;;;1999.90;999.90;;;-0.70;99.90;;;;;;5054560;28;20442;-70
2022/01/21 02:04:19;;;;;;;1999.90;999.90;;;-0.60;99.90;;;;;;5054055;28;21003;-70
2022/01/21 02:06:48;;;;;;;1999.90;999.90;;;-0.60;99.90;;;;;;5054395;28;20467;-72
2022/01/21 02:09:15;;;;;;;1999.90;999.90;;;-0.30;99.90;;;;;;5053943;28;20997;-72
2022/01/21 02:11:42;;;;;;;1999.90;999.90;;;-0.60;99.90;;;;;;5054258;28;20496;-69
2022/01/21 02:14:13;;;;;;;1999.90;999.90;;;-0.40;99.90;;;;;;5054115;28;20446;-70
2022/01/21 02:17:12;;;;;;;1999.90;999.90;;;-0.20;99.90;;;;;;5054560;28;20474;-70
2022/01/21 02:22:23;;;;;;;1999.90;999.90;;;-0.60;99.90;;;;;;5054395;28;20427;-70
2022/01/21 02:24:53;;;;;;;1999.90;999.90;;;-0.60;99.90;;;;;;5054607;28;20454;-72
2022/01/21 02:27:20;;;;;;;1999.90;999.90;;;-0.10;99.90;;;;;;5053695;28;20489;-71
2022/01/21 02:29:49;;;;;;;1999.90;999.90;;;-0.60;99.90;;;;;;5053894;28;20482;-70
2022/01/21 02:32:16;;;;;;;1999.90;999.90;;;-0.50;99.90;;;;;;5053198;28;20537;-70
2022/01/21 02:34:44;;;;;;;1999.90;999.90;;;-0.60;99.90;;;;;;5053526;28;20446;-70
2022/01/21 02:37:11;;;;;;;1999.90;999.90;;;-0.60;99.90;;;;;;5053817;28;20474;-70
2022/01/21 02:39:39;;;;;;;1999.90;999.90;;;-0.50;99.90;;;;;;5053723;28;20875;-70
2022/01/21 02:42:07;;;;;;;1999.90;999.90;;;-0.50;99.90;;;;;;5053890;28;20454;-70
2022/01/21 02:44:34;;;;;;;1999.90;999.90;;;-0.50;99.90;;;;;;5053551;28;21017;-70
2022/01/21 02:47:02;;;;;;;1999.90;999.90;;;-0.50;99.90;;;;;;5053639;28;21037;-70
2022/01/21 02:49:30;;;;;;;1999.90;999.90;;;-0.30;99.90;;;;;;5052875;28;20490;-70
2022/01/21 02:52:00;;;;;;;1999.90;999.90;;;-0.40;99.90;;;;;;5053700;28;20442;-70
2022/01/21 02:54:30;;;;;;;1999.90;999.90;;;-0.40;99.90;;;;;;5053646;28;20446;-70
2022/01/21 02:56:58;;;;;;;1999.90;999.90;;;0.20;99.90;;;;;;5053423;28;20470;-70
2022/01/21 02:59:25;;;;;;;1999.90;999.90;;;-0.40;99.90;;;;;;5053256;28;20500;-70
2022/01/21 03:01:52;;;;;;;1999.90;999.90;;;0.10;99.90;;;;;;5053770;28;20447;-70
2022/01/21 03:04:26;;;;;;;1999.90;999.90;;;-0.30;99.90;;;;;;5053392;28;20453;-71
2022/01/21 03:06:53;;;;;;;1999.90;999.90;;;-0.20;99.90;;;;;;5046253;28;20473;-70
2022/01/21 03:09:20;;;;;;;1999.90;999.90;;;0.20;99.90;;;;;;5053011;28;20525;-69
2022/01/21 03:11:47;;;;;;;1999.90;999.90;;;-0.10;99.90;;;;;;5052444;28;20450;-70
2022/01/21 03:14:15;;;;;;;1999.90;999.90;;;0.40;99.90;;;;;;5053364;28;20446;-70
2022/01/21 03:16:42;;;;;;;1999.90;999.90;;;-0.20;99.90;;;;;;5052919;28;21134;-70
2022/01/21 03:19:08;;;;;;;1999.90;999.90;;;0.00;99.90;;;;;;5053363;28;20840;-70
2022/01/21 03:21:36;;;;;;;1999.90;999.90;;;0.00;99.90;;;;;;5052991;28;20447;-70
2022/01/21 03:24:04;;;;;;;1999.90;999.90;;;-0.10;99.90;;;;;;5052975;28;20451;-70
2022/01/21 03:26:30;;;;;;;1999.90;999.90;;;0.00;99.90;;;;;;5052685;28;20467;-70
2022/01/21 03:28:59;;;;;;;1999.90;999.90;;;0.00;99.90;;;;;;5053240;28;20531;-70
2022/01/21 03:31:29;;;;;;;1999.90;999.90;;;0.40;99.90;;;;;;5052386;28;20504;-70
2022/01/21 03:33:59;;;;;;;1999.90;999.90;;;0.50;99.90;;;;;;5053224;28;20473;-70
2022/01/21 03:36:26;;;;;;;1999.90;999.90;;;0.40;99.90;;;;;;5052530;28;20477;-70
2022/01/21 03:38:53;;;;;;;1999.90;999.90;;;0.20;99.90;;;;;;5052905;28;20541;-70
2022/01/21 03:41:19;;;;;;;1999.90;999.90;;;0.20;99.90;;;;;;5052582;28;20454;-71
2022/01/21 03:43:47;;;;;;;1999.90;999.90;;;0.40;99.90;;;;;;5052898;28;20450;-70
2022/01/21 03:46:14;;;;;;;1999.90;999.90;;;0.50;99.90;;;;;;5051948;28;20473;-69
2022/01/21 03:48:46;;;;;;;1999.90;999.90;;;0.10;99.90;;;;;;5052637;28;20898;-70
2022/01/21 03:51:13;;;;;;;1999.90;999.90;;;0.10;99.90;;;;;;5052205;28;20446;-70
2022/01/21 03:53:40;;;;;;;1999.90;999.90;;;0.00;99.90;;;;;;5052946;28;20447;-70
2022/01/21 03:56:06;;;;;;;1999.90;999.90;;;0.00;99.90;;;;;;5052370;28;20500;-70
2022/01/21 03:58:33;;;;;;;1999.90;999.90;;;0.10;99.90;;;;;;5052947;28;20520;-69
2022/01/21 04:01:00;;;;;;;1999.90;999.90;;;0.60;99.90;;;;;;5051401;28;20504;-70
2022/01/21 04:03:27;;;;;;;1999.90;999.90;;;0.30;99.90;;;;;;5052737;28;20447;-70
2022/01/21 04:05:56;;;;;;;1999.90;999.90;;;0.10;99.90;;;;;;5052496;28;20473;-70
2022/01/21 04:08:22;;;;;;;1999.90;999.90;;;0.20;99.90;;;;;;5053005;28;20524;-70
2022/01/21 04:10:49;;;;;;;1999.90;999.90;;;0.80;99.90;;;;;;5051675;28;20478;-70
2022/01/21 04:13:18;;;;;;;1999.90;999.90;;;0.50;99.90;;;;;;5052559;28;20812;-70
2022/01/21 04:15:48;;;;;;;1999.90;999.90;;;0.70;99.90;;;;;;5051964;28;20589;-70
2022/01/21 04:18:14;;;;;;;1999.90;999.90;;;0.90;99.90;;;;;;5052525;28;20954;-70
2022/01/21 04:20:42;;;;;;;1999.90;999.90;;;0.40;99.90;;;;;;5051656;28;21003;-70
2022/01/21 04:23:11;;;;;;;1999.90;999.90;;;0.50;99.90;;;;;;5052111;28;20537;-70
2022/01/21 04:25:37;;;;;;;1999.90;999.90;;;0.90;99.90;;;;;;5051962;28;21011;-70
2022/01/21 04:28:05;;;;;;;1999.90;999.90;;;0.60;99.90;;;;;;5052365;28;20947;-69
2022/01/21 04:30:32;;;;;;;1999.90;999.90;;;0.60;99.90;;;;;;5051679;28;20897;-69
2022/01/21 04:32:59;;;;;;;1999.90;999.90;;;0.70;99.90;;;;;;5052166;28;20472;-70
2022/01/21 04:35:26;;;;;;;1999.90;999.90;;;0.80;99.90;;;;;;5052108;28;20473;-70
2022/01/21 04:37:56;;;;;;;1999.90;999.90;;;0.90;99.90;;;;;;5052194;28;20458;-70
2022/01/21 04:40:28;;;;;;;1999.90;999.90;;;0.90;99.90;;;;;;5051833;28;20451;-70
2022/01/21 04:48:23;;;;;;;1999.90;999.90;;;0.80;99.90;;;;;;5051963;28;20450;-70
2022/01/21 04:50:56;;;;;;;1999.90;999.90;;;0.90;99.90;;;;;;5050669;28;21048;-70
2022/01/21 04:53:24;;;;;;;1999.90;999.90;;;0.70;99.90;;;;;;5051674;28;20938;-70
2022/01/21 04:55:53;;;;;;;1999.90;999.90;;;0.80;99.90;;;;;;5051054;28;20520;-70
2022/01/21 04:58:21;;;;;;;1999.90;999.90;;;0.80;99.90;;;;;;5051544;28;20947;-70
2022/01/21 05:00:47;;;;;;;1999.90;999.90;;;0.80;99.90;;;;;;5051522;28;20876;-71
2022/01/21 05:03:15;;;;;;;1999.90;999.90;;;0.90;99.90;;;;;;5051317;28;20837;-70
2022/01/21 05:05:41;;;;;;;1999.90;999.90;;;1.00;99.90;;;;;;5051193;28;20466;-70
2022/01/21 05:08:19;;;;;;;1999.90;999.90;;;1.00;99.90;;;;;;5051862;28;20503;-70
2022/01/21 05:10:46;;;;;;;1999.90;999.90;;;1.00;99.90;;;;;;5051603;28;20473;-70
2022/01/21 05:13:16;;;;;;;1999.90;999.90;;;1.20;99.90;;;;;;5051297;28;20450;-70
2022/01/21 05:15:59;;;;;;;1999.90;999.90;;;1.00;99.90;;;;;;5051998;28;20568;-70
2022/01/21 05:18:26;;;;;;;1999.90;999.90;;;0.90;99.90;;;;;;5051857;28;20446;-70
2022/01/21 05:20:52;;;;;;;1999.90;999.90;;;0.90;99.90;;;;;;5051393;28;20446;-70
2022/01/21 05:23:19;;;;;;;1999.90;999.90;;;0.90;99.90;;;;;;5051450;28;20450;-71
2022/01/21 05:25:51;;;;;;;1999.90;999.90;;;0.90;99.90;;;;;;5052485;28;21063;-70
2022/01/21 05:28:19;;;;;;;1999.90;999.90;;;0.90;99.90;;;;;;5051272;28;20930;-70
2022/01/21 05:30:46;;;;;;;1999.90;999.90;;;1.00;99.90;;;;;;5051771;28;20547;-70
2022/01/21 05:33:13;;;;;;;1999.90;999.90;;;1.00;99.90;;;;;;5051411;28;20496;-70
2022/01/21 05:35:39;;;;;;;1999.90;999.90;;;1.10;99.90;;;;;;5051135;28;21169;-70
2022/01/21 05:38:06;;;;;;;1999.90;999.90;;;1.10;99.90;;;;;;5051434;28;20511;-70
2022/01/21 05:40:33;;;;;;;1999.90;999.90;;;1.20;99.90;;;;;;5051492;28;20446;-70
2022/01/21 05:43:00;;;;;;;1999.90;999.90;;;1.60;99.90;;;;;;5051211;28;20564;-69
2022/01/21 05:48:12;;;;;;;1999.90;999.90;;;1.40;99.90;;;;;;5051029;28;20458;-70
2022/01/21 05:50:39;;;;;;;1999.90;999.90;;;1.30;99.90;;;;;;5050381;28;20535;-70
2022/01/21 05:53:09;;;;;;;1999.90;999.90;;;1.40;99.90;;;;;;5051291;28;20447;-70
2022/01/21 05:55:40;;;;;;;1999.90;999.90;;;1.40;99.90;;;;;;5051631;28;20557;-70
2022/01/21 05:58:07;;;;;;;1999.90;999.90;;;1.40;99.90;;;;;;5050892;28;20917;-70
2022/01/21 06:00:35;;;;;;;1999.90;999.90;;;1.40;99.90;;;;;;5051320;28;20442;-71
2022/01/21 06:03:02;;;;;;;1999.90;999.90;;;1.50;99.90;;;;;;5051014;28;20871;-71
2022/01/21 06:05:32;;;;;;;1999.90;999.90;;;1.50;99.90;;;;;;5049528;28;20472;-70
2022/01/21 06:08:00;;;;;;;1999.90;999.90;;;1.50;99.90;;;;;;5053139;28;20450;-70
2022/01/21 06:10:27;;;;;;;1999.90;999.90;;;1.50;99.90;;;;;;5054299;28;20580;-69
2022/01/21 06:12:53;;;;;;;1999.90;999.90;;;1.60;99.90;;;;;;5055006;28;20496;-70
2022/01/21 06:15:20;;;;;;;1999.90;999.90;;;1.60;99.90;;;;;;5054419;28;20950;-70
2022/01/21 06:17:48;;;;;;;1999.90;999.90;;;1.60;99.90;;;;;;5054731;28;20446;-70
2022/01/21 06:20:15;;;;;;;1999.90;999.90;;;1.60;99.90;;;;;;5054011;28;20446;-70
2022/01/21 06:22:41;;;;;;;1999.90;999.90;;;1.60;99.90;;;;;;5054474;28;20447;-72
2022/01/21 06:25:09;;;;;;;1999.90;999.90;;;1.60;99.90;;;;;;5054830;28;20453;-70
2022/01/21 06:27:36;;;;;;;1999.90;999.90;;;1.60;99.90;;;;;;5054257;28;20469;-72
2022/01/21 06:30:04;;;;;;;1999.90;999.90;;;1.60;99.90;;;;;;5054572;28;20489;-70
2022/01/21 06:32:30;;;;;;;1999.90;999.90;;;1.70;99.90;;;;;;5053634;28;20504;-70
2022/01/21 06:34:58;;;;;;;1999.90;999.90;;;1.70;99.90;;;;;;5053010;28;20454;-70
2022/01/21 06:37:25;;;;;;;1999.90;999.90;;;1.70;99.90;;;;;;5053125;28;20474;-70
2022/01/21 06:39:52;;;;;;;1999.90;999.90;;;1.70;99.90;;;;;;5054515;28;20450;-68
2022/01/21 06:42:22;;;;;;;1999.90;999.90;;;1.70;99.90;;;;;;5053958;28;20454;-70
2022/01/21 06:44:49;;;;;;;1999.90;999.90;;;1.60;99.90;;;;;;5053042;28;20458;-71
2022/01/21 06:47:16;;;;;;;1999.90;999.90;;;1.60;99.90;;;;;;5053284;28;20551;-70
2022/01/21 06:49:43;;;;;;;1999.90;999.90;;;1.60;99.90;;;;;;5053104;28;20516;-70
2022/01/21 06:52:11;;;;;;;1999.90;999.90;;;1.70;99.90;;;;;;5053766;28;20511;-70
2022/01/21 06:54:37;;;;;;;1999.90;999.90;;;1.70;99.90;;;;;;5054166;28;20500;-71
2022/01/21 06:57:04;;;;;;;1999.90;999.90;;;1.70;99.90;;;;;;5053726;28;20524;-72
2022/01/21 06:59:31;;;;;;;1999.90;999.90;;;1.80;99.90;;;;;;5053819;28;20873;-70
2022/01/21 07:01:58;;;;;;;1999.90;999.90;;;1.70;99.90;;;;;;5053441;28;20442;-70
2022/01/21 07:04:24;;;;;;;1999.90;999.90;;;1.70;99.90;;;;;;5054049;28;20446;-71
2022/01/21 07:06:51;;;;;;;1999.90;999.90;;;1.80;99.90;;;;;;5052977;28;20543;-70
2022/01/21 07:09:19;;;;;;;1999.90;999.90;;;1.70;99.90;;;;;;5053452;28;20448;-70
2022/01/21 07:11:46;;;;;;;1999.90;999.90;;;1.80;99.90;;;;;;5053547;28;20478;-70
2022/01/21 07:14:12;;;;;;;1999.90;999.90;;;1.80;99.90;;;;;;5053140;28;21020;-71
2022/01/21 07:16:39;;;;;;;1999.90;999.90;;;1.80;99.90;;;;;;5052913;28;20519;-70
2022/01/21 07:19:06;;;;;;;1999.90;999.90;;;1.80;99.90;;;;;;5052805;28;20447;-71
2022/01/21 07:21:32;;;;;;;1999.90;999.90;;;1.90;99.90;;;;;;5053213;28;20446;-70
2022/01/21 07:23:59;;;;;;;1999.90;999.90;;;1.90;99.90;;;;;;5053010;28;20454;-71
2022/01/21 07:26:27;;;;;;;1999.90;999.90;;;1.90;99.90;;;;;;5053023;28;21239;-70
2022/01/21 07:28:54;;;;;;;1999.90;999.90;;;1.90;99.90;;;;;;5053034;28;20958;-70
2022/01/21 07:31:20;;;;;;;1999.90;999.90;;;1.90;99.90;;;;;;5052562;28;20990;-71
2022/01/21 07:33:47;;;;;;;1999.90;999.90;;;1.90;99.90;;;;;;5043597;28;20523;-70
2022/01/21 07:36:14;;;;;;;1999.90;999.90;;;1.90;99.90;;;;;;5052594;28;20466;-70
2022/01/21 07:38:41;;;;;;;1999.90;999.90;;;1.90;99.90;;;;;;5051791;28;20446;-70
2022/01/21 07:41:08;;;;;;;1999.90;999.90;;;1.90;99.90;;;;;;5052058;28;20950;-70
2022/01/21 07:43:36;;;;;;;1999.90;999.90;;;1.80;99.90;;;;;;5053043;28;20515;-75
2022/01/21 07:46:02;;;;;;;1999.90;999.90;;;1.90;99.90;;;;;;5044150;28;20482;-70
2022/01/21 07:48:29;;;;;;;1999.90;999.90;;;1.80;99.90;;;;;;5047261;28;20958;-72
2022/01/21 07:50:56;;;;;;;1999.90;999.90;;;1.80;99.90;;;;;;5049551;28;21011;-72
2022/01/21 07:53:22;;;;;;;1999.90;999.90;;;1.90;99.90;;;;;;5052325;28;20864;-71
2022/01/21 07:55:50;;;;;;;1999.90;999.90;;;1.90;99.90;;;;;;5051838;28;20539;-71
2022/01/21 07:58:17;;;;;;;1999.90;999.90;;;1.90;99.90;;;;;;5052345;28;20489;-70
2022/01/21 08:00:46;;;;;;;1999.90;999.90;;;1.90;99.90;;;;;;5052970;28;20435;-70
2022/01/21 08:03:13;;;;;;;1999.90;999.90;;;1.90;99.90;;;;;;5052910;28;20454;-70
2022/01/21 08:05:42;;;;;;;1999.90;999.90;;;2.00;99.90;;;;;;5052679;28;20472;-70
2022/01/21 08:08:09;;;;;;;1999.90;999.90;;;2.00;99.90;;;;;;5051954;28;20478;-70
2022/01/21 08:10:35;;;;;;;1999.90;999.90;;;2.00;99.90;;;;;;5043148;28;20475;-72
2022/01/21 08:13:02;;;;;;;1999.90;999.90;;;2.00;99.90;;;;;;5048912;28;20467;-70
2022/01/21 08:15:30;;;;;;;1999.90;999.90;;;2.10;99.90;;;;;;5052239;28;20446;-70
2022/01/21 08:17:58;;;;;;;1999.90;999.90;;;2.10;99.90;;;;;;5047517;28;20512;-70
2022/01/21 08:20:25;;;;;;;1999.90;999.90;;;2.10;99.90;;;;;;5051031;28;20462;-70
2022/01/21 08:22:52;;;;;;;1999.90;999.90;;;2.20;99.90;;;;;;5050906;28;20800;-70
2022/01/21 08:25:18;;;;;;;1999.90;999.90;;;2.20;99.90;;;;;;5051314;28;20458;-71
2022/01/21 08:27:45;;;;;;;1999.90;999.90;;;2.20;99.90;;;;;;5050674;28;20532;-70
2022/01/21 08:30:12;;;;;;;1999.90;999.90;;;2.30;99.90;;;;;;5048879;28;20540;-70
2022/01/21 08:32:39;;;;;;;1999.90;999.90;;;2.30;99.90;;;;;;5050931;28;20463;-70
2022/01/21 08:35:09;;;;;;;1999.90;999.90;;;2.30;99.90;;;;;;5051295;28;20528;-70
2022/01/21 08:37:36;;;;;;;1999.90;999.90;;;2.40;99.90;;;;;;5050432;28;20478;-70
2022/01/21 08:40:04;;;;;;;1999.90;999.90;;;2.40;99.90;;;;;;5047042;28;21007;-70
2022/01/21 08:42:31;;;;;;;1999.90;999.90;;;2.40;99.90;;;;;;5047285;28;20466;-70
2022/01/21 08:44:57;;;;;;;1999.90;999.90;;;2.40;99.90;;;;;;5050671;28;20458;-70
2022/01/21 08:47:24;;;;;;;1999.90;999.90;;;2.40;99.90;;;;;;5050895;28;20535;-72
2022/01/21 08:49:52;;;;;;;1999.90;999.90;;;2.50;99.90;;;;;;5050188;28;20500;-71
2022/01/21 08:52:24;;;;;;;1999.90;999.90;;;2.40;99.90;;;;;;5049323;28;20503;-71
2022/01/21 08:54:51;;;;;;;1999.90;999.90;;;2.40;99.90;;;;;;5049657;28;20804;-72
2022/01/21 08:57:19;;;;;;;1999.90;999.90;;;2.50;99.90;;;;;;5049746;28;20482;-70
2022/01/21 08:59:46;;;;;;;1999.90;999.90;;;2.50;99.90;;;;;;5050807;28;20462;-70
2022/01/21 09:02:13;;;;;;;1999.90;999.90;;;2.60;99.90;;;;;;5048842;28;20527;-70
2022/01/21 09:04:40;;;;;;;1999.90;999.90;;;2.60;99.90;;;;;;5050784;28;20446;-71
2022/01/21 09:07:06;;;;;;;1999.90;999.90;;;2.60;99.90;;;;;;5051352;28;20478;-71
2022/01/21 09:09:35;;;;;;;1999.90;999.90;;;2.70;99.90;;;;;;5051392;28;21008;-71
2022/01/21 09:12:02;;;;;;;1999.90;999.90;;;2.70;99.90;;;;;;5051296;28;20477;-70
2022/01/21 09:14:29;;;;;;;1999.90;999.90;;;2.70;99.90;;;;;;5051571;28;20500;-71
2022/01/21 09:16:56;;;;;;;1999.90;999.90;;;2.70;99.90;;;;;;5051296;28;21124;-70
2022/01/21 09:19:23;;;;;;;1999.90;999.90;;;2.70;99.90;;;;;;5052089;28;20501;-71
2022/01/21 09:21:51;;;;;;;1999.90;999.90;;;2.70;99.90;;;;;;5051408;28;20446;-70
2022/01/21 09:24:18;;;;;;;1999.90;999.90;;;2.70;99.90;;;;;;5051423;28;20512;-70
2022/01/21 09:26:47;;;;;;;1999.90;999.90;;;2.60;99.90;;;;;;5051916;28;20516;-70
2022/01/21 09:29:13;;;;;;;1999.90;999.90;;;2.50;99.90;;;;;;5051188;28;20466;-72
2022/01/21 09:31:40;;;;;;;1999.90;999.90;;;2.50;99.90;;;;;;5051498;28;20539;-70
2022/01/21 09:34:07;;;;;;;1999.90;999.90;;;2.40;99.90;;;;;;5051283;28;20532;-70
2022/01/21 09:36:34;;;;;;;1999.90;999.90;;;2.30;99.90;;;;;;5051281;28;20489;-70
2022/01/21 09:39:02;;;;;;;1999.90;999.90;;;2.30;99.90;;;;;;5051415;28;20450;-70
2022/01/21 09:41:31;;;;;;;1999.90;999.90;;;2.40;99.90;;;;;;5052525;28;20485;-71
2022/01/21 09:44:02;;;;;;;1999.90;999.90;;;2.50;99.90;;;;;;5055369;28;20458;-70
2022/01/21 09:46:34;;;;;;;1999.90;999.90;;;2.50;99.90;;;;;;5055078;28;20513;-70
2022/01/21 09:49:19;;;;;;;1999.90;999.90;;;2.50;99.90;;;;;;5054777;28;20454;-70
2022/01/21 09:51:47;;;;;;;1999.90;999.90;;;2.60;99.90;;;;;;5054636;28;20472;-70
2022/01/21 09:54:14;;;;;;;1999.90;999.90;;;2.60;99.90;;;;;;5055419;28;20496;-71
2022/01/21 09:56:45;;;;;;;1999.90;999.90;;;2.70;99.90;;;;;;5056465;28;21065;-71
2022/01/21 09:59:17;;;;;;;1999.90;999.90;;;2.70;99.90;;;;;;5054995;28;20962;-71
2022/01/21 10:01:43;;;;;;;1999.90;999.90;;;2.70;99.90;;;;;;5055846;28;20446;-70
2022/01/21 10:04:10;;;;;;;1999.90;999.90;;;2.70;99.90;;;;;;5055231;28;20498;-71
2022/01/21 10:06:38;;;;;;;1999.90;999.90;;;2.70;99.90;;;;;;5055138;28;20951;-70
2022/01/21 10:09:04;;;;;;;1999.90;999.90;;;2.70;99.90;;;;;;5054485;28;20458;-71
2022/01/21 10:11:31;;;;;;;1999.90;999.90;;;2.60;99.90;;;;;;5054775;28;20908;-70
2022/01/21 10:13:58;;;;;;;1999.90;999.90;;;2.60;99.90;;;;;;5054368;28;21036;-70
2022/01/21 10:16:26;;;;;;;1999.90;999.90;;;2.70;99.90;;;;;;5054952;28;20466;-70
2022/01/21 10:19:05;;;;;;;1999.90;999.90;;;2.70;99.90;;;;;;5054949;28;20450;-70
2022/01/21 10:21:34;;;;;;;1999.90;999.90;;;2.60;99.90;;;;;;5054814;28;20427;-70
2022/01/21 10:24:06;;;;;;;1999.90;999.90;;;2.60;99.90;;;;;;5054224;28;20500;-68
2022/01/21 10:26:32;;;;;;;1999.90;999.90;;;2.60;99.90;;;;;;5054858;28;20519;-70
2022/01/21 10:28:59;;;;;;;1999.90;999.90;;;2.60;99.90;;;;;;5054363;28;20500;-70
2022/01/21 10:31:28;;;;;;;1999.90;999.90;;;2.70;99.90;;;;;;5054609;28;20470;-71
2022/01/21 10:33:59;;;;;;;1999.90;999.90;;;2.70;99.90;;;;;;5054801;28;20496;-71
2022/01/21 10:36:30;;;;;;;1999.90;999.90;;;2.80;99.90;;;;;;5054159;28;20584;-70
2022/01/21 10:39:07;;;;;;;1999.90;999.90;;;2.80;99.90;;;;;;5054094;28;20490;-70
2022/01/21 10:41:35;;;;;;;1999.90;999.90;;;2.80;99.90;;;;;;5054127;28;20908;-70
2022/01/21 10:44:08;;;;;;;1999.90;999.90;;;2.90;99.90;;;;;;5054017;28;20899;-70
2022/01/21 10:46:36;;;;;;;1999.90;999.90;;;2.90;99.90;;;;;;5054579;28;20472;-70
2022/01/21 10:49:06;;;;;;;1999.90;999.90;;;2.90;99.90;;;;;;5053156;28;21132;-71
2022/01/21 10:51:34;;;;;;;1999.90;999.90;;;2.90;99.90;;;;;;5055942;28;20474;-70
2022/01/21 10:54:14;;;;;;;1999.90;999.90;;;2.90;99.90;;;;;;5052878;28;20955;-70
2022/01/21 10:56:41;;;;;;;1999.90;999.90;;;2.90;99.90;;;;;;5055700;28;21078;-70
2022/01/21 10:59:08;;;;;;;1999.90;999.90;;;2.90;99.90;;;;;;5053870;28;20447;-71
2022/01/21 11:01:36;;;;;;;1999.90;999.90;;;3.00;99.90;;;;;;5053591;28;20450;-70
2022/01/21 11:04:07;;;;;;;1999.90;999.90;;;3.00;99.90;;;;;;5053904;28;20454;-70
2022/01/21 11:06:42;;;;;;;1999.90;999.90;;;3.10;99.90;;;;;;5053493;28;20558;-70
2022/01/21 11:09:17;;;;;;;1999.90;999.90;;;3.10;99.90;;;;;;5054226;28;20437;-72
2022/01/21 11:11:45;;;;;;;1999.90;999.90;;;3.10;99.90;;;;;;5053580;28;20911;-70
2022/01/21 11:14:13;;;;;;;1999.90;999.90;;;3.10;99.90;;;;;;5054007;28;20791;-70
2022/01/21 11:16:45;;;;;;;1999.90;999.90;;;3.10;99.90;;;;;;5053504;28;20474;-69
2022/01/21 11:19:14;;;;;;;1999.90;999.90;;;3.00;99.90;;;;;;5040173;28;20503;-72
2022/01/21 11:21:49;;;;;;;1999.90;999.90;;;3.00;99.90;;;;;;5053421;28;21000;-70
2022/01/21 11:24:19;;;;;;;1999.90;999.90;;;2.90;99.90;;;;;;5044834;28;20461;-71
2022/01/21 11:27:13;;;;;;;1999.90;999.90;;;3.00;99.90;;;;;;5051863;28;20486;-71
2022/01/21 11:29:40;;;;;;;1999.90;999.90;;;3.00;99.90;;;;;;5053248;28;20930;-71
2022/01/21 11:32:09;;;;;;;1999.90;999.90;;;3.00;99.90;;;;;;5052752;28;20489;-70
2022/01/21 11:34:37;;;;;;;1999.90;999.90;;;3.10;99.90;;;;;;5052754;28;20450;-70
2022/01/21 11:37:12;;;;;;;1999.90;999.90;;;3.10;99.90;;;;;;5055857;28;20526;-71
2022/01/21 11:39:39;;;;;;;1999.90;999.90;;;3.10;99.90;;;;;;5053016;28;20445;-71
2022/01/21 11:42:08;;;;;;;1999.90;999.90;;;3.20;99.90;;;;;;5052356;28;20750;-71
2022/01/21 11:44:38;;;;;;;1999.90;999.90;;;3.10;99.90;;;;;;5053112;28;20446;-71
2022/01/21 11:47:28;;;;;;;1999.90;999.90;;;3.20;99.90;;;;;;5052307;28;20482;-72
2022/01/21 11:49:57;;;;;;;1999.90;999.90;;;3.30;99.90;;;;;;5052434;28;20454;-70
2022/01/21 11:52:24;;;;;;;1999.90;999.90;;;3.40;99.90;;;;;;5052307;28;20528;-73
2022/01/21 11:54:51;;;;;;;1999.90;999.90;;;3.50;99.90;;;;;;5052449;28;20500;-71
2022/01/21 11:57:30;;;;;;;1999.90;999.90;;;3.60;99.90;;;;;;5052678;28;20977;-71
2022/01/21 12:00:04;;;;;;;1999.90;999.90;;;3.50;99.90;;;;;;5052509;28;20470;-71
2022/01/21 12:02:34;;;;;;;1999.90;999.90;;;3.60;99.90;;;;;;5052758;28;20441;-71
2022/01/21 12:05:03;;;;;;;1999.90;999.90;;;3.60;99.90;;;;;;5051269;28;20443;-71
2022/01/21 12:07:58;;;;;;;1999.90;999.90;;;3.60;99.90;;;;;;5032388;28;20979;-70
2022/01/21 12:10:32;;;;;;;1999.90;999.90;;;3.60;99.90;;;;;;5043564;28;20530;-73
2022/01/21 12:13:12;;;;;;;1999.90;999.90;;;3.70;99.90;;;;;;5052157;28;20488;-71
2022/01/21 12:16:08;;;;;;;1999.90;999.90;;;3.70;99.90;;;;;;5052069;28;20543;-70
2022/01/21 12:19:10;;;;;;;1999.90;999.90;;;3.80;99.90;;;;;;5052451;28;20442;-70
2022/01/21 12:21:38;;;;;;;1999.90;999.90;;;3.70;99.90;;;;;;5051797;28;20505;-71
2022/01/21 12:24:08;;;;;;;1999.90;999.90;;;3.90;99.90;;;;;;5051569;28;20943;-71
2022/01/21 12:26:35;;;;;;;1999.90;999.90;;;4.00;99.90;;;;;;5051450;28;21013;-71
2022/01/21 12:29:22;;;;;;;1999.90;999.90;;;4.10;99.90;;;;;;5052039;28;20472;-71
2022/01/21 12:32:18;;;;;;;1999.90;999.90;;;4.10;99.90;;;;;;5051545;28;20470;-71
2022/01/21 12:35:19;;;;;;;1999.90;999.90;;;4.00;99.90;;;;;;5050942;28;20446;-71
2022/01/21 12:41:01;;;;;;;1999.90;999.90;;;4.20;99.90;;;;;;5049830;28;20487;-70
2022/01/21 12:43:41;;;;;;;1999.90;999.90;;;4.20;99.90;;;;;;5051731;28;20449;-72
2022/01/21 12:46:10;;;;;;;1999.90;999.90;;;4.30;99.90;;;;;;5051551;28;20461;-73
2022/01/21 12:48:38;;;;;;;1999.90;999.90;;;4.40;99.90;;;;;;5050516;28;20528;-70
2022/01/21 12:51:14;;;;;;;1999.90;999.90;;;4.40;99.90;;;;;;5049693;28;20450;-70
2022/01/21 12:55:55;;;;;;;1999.90;999.90;;;4.40;99.90;;;;;;5046477;28;20450;-71